Bahama Mama — 9HA2263 — position and weather

sailwx.info

Track history (hours):
 
Tides and Currents Weather Stations Pressure Air Temp Water Temp Dewpoint Dewpoint Depression Visibility Wind Speed Wind Dir Waves Ship Positions

Bahama Mama

Last reported at 2017-Dec-11 17:00 UTC. Time now 2017-Dec-12 23:55 UTC.
Position N 38°57' E 001°35'.

Length 155 m; draft 5.5 m.

Type: Ship. MMSI: 248218000.

Date/timePositionNaut miles runAvg speedWind from/ knotsBaromVisibWave heightAir tempDewpointWater temp
2017-Dec-11 17:00N 38°57' E 001°35'711.7
2017-Dec-11 16:23N 38°54' E 001°27'0 0.0
2017-Dec-11 16:00N 38°54' E 001°27'1 1.1
2017-Dec-11 15:29N 38°54' E 001°27'917.5
2017-Dec-11 15:00N 38°58' E 001°37'3918.7
2017-Dec-11 12:55N 39°20' E 002°19'715.7
2017-Dec-11 12:30N 39°23' E 002°26'714.6
2017-Dec-11 12:00N 39°27' E 002°34'713.9
2017-Dec-11 11:30N 39°33' E 002°38'1 1.3
2017-Dec-11 11:00N 39°33' E 002°37'0 0.0
2017-Dec-11 10:30N 39°33' E 002°37'0 0.0
2017-Dec-11 10:00N 39°33' E 002°37'0 0.0
2017-Dec-11 09:30N 39°33' E 002°37'0 0.0
2017-Dec-11 09:00N 39°33' E 002°37'0 0.0
2017-Dec-11 08:30N 39°33' E 002°37'0 0.0
2017-Dec-11 08:00N 39°33' E 002°37'0 0.0
2017-Dec-11 07:30N 39°33' E 002°37'0 0.0
2017-Dec-11 07:00N 39°33' E 002°37'0 0.0
2017-Dec-11 06:30N 39°33' E 002°37'0 0.0
2017-Dec-11 06:00N 39°33' E 002°37'0 0.0
2017-Dec-11 05:30N 39°33' E 002°37'0 0.0
2017-Dec-11 05:00N 39°33' E 002°37'0 0.0
2017-Dec-11 04:30N 39°33' E 002°37'0 0.0
2017-Dec-11 04:00N 39°33' E 002°37'0 0.0
2017-Dec-11 03:30N 39°33' E 002°37'0 0.0
2017-Dec-11 03:00N 39°33' E 002°37'0 0.0
2017-Dec-11 02:30N 39°33' E 002°37'0 0.0
2017-Dec-11 02:00N 39°33' E 002°37'0 0.0
2017-Dec-11 01:30N 39°33' E 002°37'0 0.0
2017-Dec-11 01:00N 39°33' E 002°37'0 0.2
2017-Dec-11 00:30N 39°33' E 002°38'4 8.6
2017-Dec-11 00:00N 39°29' E 002°36'918.5
2017-Dec-10 23:30N 39°23' E 002°28'4121.6
2017-Dec-10 21:37N 39°00' E 001°43'221.9
2017-Dec-10 21:30N 38°59' E 001°41'1121.6
2017-Dec-10 21:00N 38°54' E 001°29'1 2.5
2017-Dec-10 20:26N 38°54' E 001°27'1 1.9
2017-Dec-10 19:59N 38°54' E 001°27'9 1.1
2017-Dec-10 12:16N 38°48' E 001°18'519.6
2017-Dec-10 12:00N 38°48' E 001°25'611.8
2017-Dec-10 11:27N 38°54' E 001°27'0 0.1
2017-Dec-10 10:52N 38°54' E 001°27'410.1
2017-Dec-10 10:30N 38°55' E 001°32'1020.7
2017-Dec-10 10:00N 39°01' E 001°43'3220.3
2017-Dec-10 08:24N 39°18' E 002°18'820.3
2017-Dec-10 08:01N 39°22' E 002°27'1020.3
2017-Dec-10 07:30N 39°30' E 002°36'3 6.7
2017-Dec-10 07:00N 39°33' E 002°37'0 0.0
2017-Dec-10 06:30N 39°33' E 002°37'0 0.0
2017-Dec-10 06:00N 39°33' E 002°37'0 0.0
2017-Dec-10 05:30N 39°33' E 002°37'0 0.0
2017-Dec-10 05:00N 39°33' E 002°37'0 0.0
2017-Dec-10 04:30N 39°33' E 002°37'0 0.0
2017-Dec-10 04:00N 39°33' E 002°37'0 0.0
2017-Dec-10 03:30N 39°33' E 002°37'0 0.0
2017-Dec-10 03:00N 39°33' E 002°37'0 0.0
2017-Dec-10 02:30N 39°33' E 002°37'0 0.0
2017-Dec-10 02:00N 39°33' E 002°37'0 0.0
2017-Dec-10 01:30N 39°33' E 002°37'0 0.0
2017-Dec-10 01:00N 39°33' E 002°37'0 0.0
2017-Dec-10 00:30N 39°33' E 002°37'0 0.0
2017-Dec-10 00:00N 39°33' E 002°37'1 2.1
2017-Dec-09 23:30N 39°33' E 002°39'611.3
2017-Dec-09 23:00N 39°27' E 002°36'1019.4
2017-Dec-09 22:30N 39°18' E 002°32'3 5.4
2017-Dec-09 21:56N 39°15' E 002°30'1 1.0
2017-Dec-09 20:54N 39°15' E 002°29'191 4.6
2017-Dec-08 03:47N 36°42' E 000°05'516.7
2017-Dec-08 03:30N 36°46' E 000°07'  
Track history (hours):
 
Tides and Currents Weather Stations Pressure Air Temp Water Temp Dewpoint Dewpoint Depression Visibility Wind Speed Wind Dir Waves Ship Positions

Bahama Mama

Last reported at 2017-Dec-11 17:00 UTC. Time now 2017-Dec-12 23:55 UTC.
Position N 38°57' E 001°35'.

Length 155 m; draft 5.5 m.

Type: Ship. MMSI: 248218000.

Date/timePositionNaut miles runAvg speedWind from/ knotsBaromVisibWave heightAir tempDewpointWater temp
2017-Dec-11 17:00N 38°57' E 001°35'711.7
2017-Dec-11 16:23N 38°54' E 001°27'0 0.0
2017-Dec-11 16:00N 38°54' E 001°27'1 1.1
2017-Dec-11 15:29N 38°54' E 001°27'917.5
2017-Dec-11 15:00N 38°58' E 001°37'3918.7
2017-Dec-11 12:55N 39°20' E 002°19'715.7
2017-Dec-11 12:30N 39°23' E 002°26'714.6
2017-Dec-11 12:00N 39°27' E 002°34'713.9
2017-Dec-11 11:30N 39°33' E 002°38'1 1.3
2017-Dec-11 11:00N 39°33' E 002°37'0 0.0
2017-Dec-11 10:30N 39°33' E 002°37'0 0.0
2017-Dec-11 10:00N 39°33' E 002°37'0 0.0
2017-Dec-11 09:30N 39°33' E 002°37'0 0.0
2017-Dec-11 09:00N 39°33' E 002°37'0 0.0
2017-Dec-11 08:30N 39°33' E 002°37'0 0.0
2017-Dec-11 08:00N 39°33' E 002°37'0 0.0
2017-Dec-11 07:30N 39°33' E 002°37'0 0.0
2017-Dec-11 07:00N 39°33' E 002°37'0 0.0
2017-Dec-11 06:30N 39°33' E 002°37'0 0.0
2017-Dec-11 06:00N 39°33' E 002°37'0 0.0
2017-Dec-11 05:30N 39°33' E 002°37'0 0.0
2017-Dec-11 05:00N 39°33' E 002°37'0 0.0
2017-Dec-11 04:30N 39°33' E 002°37'0 0.0
2017-Dec-11 04:00N 39°33' E 002°37'0 0.0
2017-Dec-11 03:30N 39°33' E 002°37'0 0.0
2017-Dec-11 03:00N 39°33' E 002°37'0 0.0
2017-Dec-11 02:30N 39°33' E 002°37'0 0.0
2017-Dec-11 02:00N 39°33' E 002°37'0 0.0
2017-Dec-11 01:30N 39°33' E 002°37'0 0.0
2017-Dec-11 01:00N 39°33' E 002°37'0 0.2
2017-Dec-11 00:30N 39°33' E 002°38'4 8.6
2017-Dec-11 00:00N 39°29' E 002°36'918.5
2017-Dec-10 23:30N 39°23' E 002°28'4121.6
2017-Dec-10 21:37N 39°00' E 001°43'221.9
2017-Dec-10 21:30N 38°59' E 001°41'1121.6
2017-Dec-10 21:00N 38°54' E 001°29'1 2.5
2017-Dec-10 20:26N 38°54' E 001°27'1 1.9
2017-Dec-10 19:59N 38°54' E 001°27'9 1.1
2017-Dec-10 12:16N 38°48' E 001°18'519.6
2017-Dec-10 12:00N 38°48' E 001°25'611.8
2017-Dec-10 11:27N 38°54' E 001°27'0 0.1
2017-Dec-10 10:52N 38°54' E 001°27'410.1
2017-Dec-10 10:30N 38°55' E 001°32'1020.7
2017-Dec-10 10:00N 39°01' E 001°43'3220.3
2017-Dec-10 08:24N 39°18' E 002°18'820.3
2017-Dec-10 08:01N 39°22' E 002°27'1020.3
2017-Dec-10 07:30N 39°30' E 002°36'3 6.7
2017-Dec-10 07:00N 39°33' E 002°37'0 0.0
2017-Dec-10 06:30N 39°33' E 002°37'0 0.0
2017-Dec-10 06:00N 39°33' E 002°37'0 0.0
2017-Dec-10 05:30N 39°33' E 002°37'0 0.0
2017-Dec-10 05:00N 39°33' E 002°37'0 0.0
2017-Dec-10 04:30N 39°33' E 002°37'0 0.0
2017-Dec-10 04:00N 39°33' E 002°37'0 0.0
2017-Dec-10 03:30N 39°33' E 002°37'0 0.0
2017-Dec-10 03:00N 39°33' E 002°37'0 0.0
2017-Dec-10 02:30N 39°33' E 002°37'0 0.0
2017-Dec-10 02:00N 39°33' E 002°37'0 0.0
2017-Dec-10 01:30N 39°33' E 002°37'0 0.0
2017-Dec-10 01:00N 39°33' E 002°37'0 0.0
2017-Dec-10 00:30N 39°33' E 002°37'0 0.0
2017-Dec-10 00:00N 39°33' E 002°37'1 2.1
2017-Dec-09 23:30N 39°33' E 002°39'611.3
2017-Dec-09 23:00N 39°27' E 002°36'1019.4
2017-Dec-09 22:30N 39°18' E 002°32'3 5.4
2017-Dec-09 21:56N 39°15' E 002°30'1 1.0
2017-Dec-09 20:54N 39°15' E 002°29'191 4.6
2017-Dec-08 03:47N 36°42' E 000°05'516.7
2017-Dec-08 03:30N 36°46' E 000°07'  

Dump ship's entire track history